Time;durP1;ratioP1;P1;durP2;ratioP2;P2;SDS_P1;SDS_P2;PMS_P1;PMS_P2;Temp;Humidity;BMP_temperature;BMP_pressure;BME280_temperature;BME280_humidity;BME280_pressure;Samples;Min_cycle;Max_cycle;Signal;HPM_P1;HPM_P2
2021/12/23 00:02:05;;;;;;;;;;;12.60;56.80;;;;;;5102337;28;19915;-70
2021/12/23 00:04:31;;;;;;;;;;;12.60;56.80;;;;;;5102046;28;19944;-69
2021/12/23 00:06:57;;;;;;;;;;;12.60;56.80;;;;;;5102219;28;19915;-70
2021/12/23 00:09:28;;;;;;;;;;;12.60;56.80;;;;;;5102125;28;20128;-69
2021/12/23 00:11:54;;;;;;;;;;;12.60;56.80;;;;;;5102522;28;19904;-69
2021/12/23 00:14:20;;;;;;;;;;;12.60;56.80;;;;;;5102041;28;19962;-70
2021/12/23 00:16:47;;;;;;;;;;;12.60;56.80;;;;;;5102070;28;19908;-69
2021/12/23 00:24:36;;;;;;;;;;;12.50;57.00;;;;;;5101878;28;20233;-70
2021/12/23 00:27:02;;;;;;;;;;;12.50;57.00;;;;;;5101843;28;20344;-69
2021/12/23 00:29:28;;;;;;;;;;;12.50;57.10;;;;;;5101723;28;19900;-68
2021/12/23 00:31:53;;;;;;;;;;;12.50;57.00;;;;;;5101727;28;19907;-69
2021/12/23 00:34:19;;;;;;;;;;;12.50;56.80;;;;;;5101624;28;19915;-70
2021/12/23 00:36:46;;;;;;;;;;;12.50;56.80;;;;;;5101189;28;19915;-70
2021/12/23 00:39:13;;;;;;;;;;;12.50;56.90;;;;;;5083321;28;20134;-70
2021/12/23 00:41:41;;;;;;;;;;;12.50;56.80;;;;;;5101489;28;19908;-70
2021/12/23 00:44:07;;;;;;;;;;;12.50;56.70;;;;;;5101382;28;19915;-70
2021/12/23 00:46:33;;;;;;;;;;;12.60;56.60;;;;;;5101388;28;19900;-70
2021/12/23 00:48:58;;;;;;;;;;;12.50;56.60;;;;;;5101416;28;19938;-69
2021/12/23 00:51:24;;;;;;;;;;;12.50;56.60;;;;;;5101023;28;19908;-69
2021/12/23 00:53:52;;;;;;;;;;;12.50;56.60;;;;;;5101203;28;20139;-69
2021/12/23 00:56:18;;;;;;;;;;;12.50;56.70;;;;;;5101247;28;19899;-70
2021/12/23 00:58:44;;;;;;;;;;;12.50;56.70;;;;;;5101152;28;19915;-70
2021/12/23 01:01:10;;;;;;;;;;;12.50;56.80;;;;;;5101172;28;19935;-70
2021/12/23 01:03:35;;;;;;;;;;;12.40;56.80;;;;;;5101078;28;19907;-70
2021/12/23 01:06:01;;;;;;;;;;;12.40;56.80;;;;;;5100833;28;19971;-70
2021/12/23 01:08:27;;;;;;;;;;;12.40;56.90;;;;;;5100940;28;19912;-69
2021/12/23 01:10:58;;;;;;;;;;;12.40;57.00;;;;;;5100940;28;19922;-69
2021/12/23 01:13:27;;;;;;;;;;;12.40;57.00;;;;;;5100915;28;19912;-69
2021/12/23 01:18:25;;;;;;;;;;;12.40;56.80;;;;;;5101124;28;19911;-69
2021/12/23 01:20:52;;;;;;;;;;;12.40;56.80;;;;;;5100747;28;19907;-69
2021/12/23 01:23:22;;;;;;;;;;;12.40;56.70;;;;;;5100834;28;19900;-68
2021/12/23 01:25:48;;;;;;;;;;;12.50;56.70;;;;;;5100550;28;19904;-70
2021/12/23 01:28:14;;;;;;;;;;;12.50;56.50;;;;;;5100585;28;20123;-70
2021/12/23 01:30:39;;;;;;;;;;;12.50;56.60;;;;;;5100568;28;19979;-70
2021/12/23 01:33:06;;;;;;;;;;;12.50;56.50;;;;;;5100549;28;20006;-69
2021/12/23 01:35:32;;;;;;;;;;;12.40;56.60;;;;;;5100737;28;19974;-70
2021/12/23 01:37:58;;;;;;;;;;;12.40;57.30;;;;;;5100541;28;19931;-69
2021/12/23 01:40:24;;;;;;;;;;;12.40;56.70;;;;;;5082217;28;19912;-70
2021/12/23 01:42:50;;;;;;;;;;;12.40;56.70;;;;;;5100465;28;19946;-70
2021/12/23 01:45:17;;;;;;;;;;;12.40;56.80;;;;;;5100303;28;19918;-70
2021/12/23 01:47:43;;;;;;;;;;;12.40;56.80;;;;;;5100292;28;19977;-70
2021/12/23 01:50:09;;;;;;;;;;;12.40;56.80;;;;;;5100654;28;19908;-69
2021/12/23 01:52:35;;;;;;;;;;;12.30;56.80;;;;;;5100183;28;19943;-70
2021/12/23 01:55:02;;;;;;;;;;;12.30;56.80;;;;;;5100217;28;19908;-69
2021/12/23 01:57:30;;;;;;;;;;;12.30;56.90;;;;;;5100235;28;19900;-69
2021/12/23 01:59:56;;;;;;;;;;;12.30;56.70;;;;;;5100186;28;19915;-69
2021/12/23 02:02:21;;;;;;;;;;;12.40;56.80;;;;;;5099471;28;19908;-69
2021/12/23 02:04:47;;;;;;;;;;;12.40;57.30;;;;;;5099888;28;19920;-70
2021/12/23 02:07:13;;;;;;;;;;;12.40;56.60;;;;;;5100001;28;20343;-69
2021/12/23 02:09:38;;;;;;;;;;;12.40;56.50;;;;;;5100410;28;19914;-69
2021/12/23 02:12:04;;;;;;;;;;;12.40;56.50;;;;;;5100044;28;19969;-69
2021/12/23 02:14:30;;;;;;;;;;;12.40;56.50;;;;;;5099943;28;19912;-70
2021/12/23 02:16:55;;;;;;;;;;;12.40;56.60;;;;;;5099959;28;19908;-69
2021/12/23 02:19:21;;;;;;;;;;;12.30;56.70;;;;;;5099904;28;19915;-70
2021/12/23 02:21:47;;;;;;;;;;;12.30;56.80;;;;;;5099962;28;19908;-69
2021/12/23 02:24:13;;;;;;;;;;;12.30;56.70;;;;;;5099759;28;20223;-69
2021/12/23 02:26:40;;;;;;;;;;;12.30;56.80;;;;;;5099799;28;19915;-70
2021/12/23 02:29:06;;;;;;;;;;;12.30;56.80;;;;;;5099889;28;19915;-69
2021/12/23 02:31:32;;;;;;;;;;;12.20;56.80;;;;;;5099803;28;19908;-70
2021/12/23 02:33:57;;;;;;;;;;;12.30;56.80;;;;;;5099810;28;20112;-69
2021/12/23 02:36:23;;;;;;;;;;;12.30;56.80;;;;;;5099817;28;20093;-70
2021/12/23 02:38:49;;;;;;;;;;;12.30;57.30;;;;;;5099766;28;19938;-69
2021/12/23 02:41:14;;;;;;;;;;;12.30;56.80;;;;;;5081631;28;19908;-70
2021/12/23 02:43:40;;;;;;;;;;;12.30;56.70;;;;;;5099698;28;19915;-70
2021/12/23 02:46:06;;;;;;;;;;;12.30;56.80;;;;;;5081518;28;19982;-70
2021/12/23 02:48:34;;;;;;;;;;;12.30;56.70;;;;;;5099758;28;20189;-69
2021/12/23 02:51:00;;;;;;;;;;;12.30;56.60;;;;;;5099627;28;19918;-69
2021/12/23 02:53:26;;;;;;;;;;;12.30;56.60;;;;;;5099612;28;20223;-69
2021/12/23 02:55:55;;;;;;;;;;;12.30;56.50;;;;;;5099622;28;19939;-70
2021/12/23 02:58:21;;;;;;;;;;;12.30;56.60;;;;;;5099549;28;20323;-70
2021/12/23 03:00:48;;;;;;;;;;;12.20;56.70;;;;;;5099524;28;19908;-69
2021/12/23 03:03:14;;;;;;;;;;;12.20;56.90;;;;;;5099678;28;19915;-69
2021/12/23 03:05:45;;;;;;;;;;;12.10;56.90;;;;;;5099150;28;19919;-69
2021/12/23 03:08:10;;;;;;;;;;;12.10;57.00;;;;;;5099471;28;19987;-69
2021/12/23 03:10:36;;;;;;;;;;;12.10;57.00;;;;;;5099388;28;19908;-69
2021/12/23 03:13:01;;;;;;;;;;;12.10;57.00;;;;;;5099379;28;19978;-69
2021/12/23 03:15:27;;;;;;;;;;;12.20;57.00;;;;;;5103174;28;19900;-70
2021/12/23 03:17:53;;;;;;;;;;;12.20;56.90;;;;;;5103169;28;19927;-69
2021/12/23 03:20:18;;;;;;;;;;;12.20;56.80;;;;;;5084851;28;20196;-69
2021/12/23 03:22:44;;;;;;;;;;;12.20;56.70;;;;;;5102978;28;19999;-69
2021/12/23 03:25:10;;;;;;;;;;;12.20;56.80;;;;;;5102934;28;19935;-69
2021/12/23 03:27:35;;;;;;;;;;;12.20;56.80;;;;;;5102952;28;19990;-69
2021/12/23 03:30:02;;;;;;;;;;;12.20;56.80;;;;;;5102894;28;20156;-69
2021/12/23 03:32:28;;;;;;;;;;;12.20;56.60;;;;;;5084682;28;19906;-69
2021/12/23 03:34:54;;;;;;;;;;;12.20;56.60;;;;;;5102792;28;20166;-69
2021/12/23 03:37:19;;;;;;;;;;;12.20;56.50;;;;;;5102783;28;19908;-70
2021/12/23 03:39:47;;;;;;;;;;;12.20;56.70;;;;;;5102756;28;19915;-69
2021/12/23 03:42:13;;;;;;;;;;;12.20;56.60;;;;;;5102695;28;20237;-70
2021/12/23 03:44:38;;;;;;;;;;;12.20;56.70;;;;;;5102593;28;19912;-68
2021/12/23 03:47:04;;;;;;;;;;;12.10;56.80;;;;;;5102590;28;20016;-70
2021/12/23 03:49:30;;;;;;;;;;;12.10;56.90;;;;;;5102520;28;19908;-69
2021/12/23 03:51:55;;;;;;;;;;;12.10;57.00;;;;;;5102564;28;20272;-69
2021/12/23 03:54:21;;;;;;;;;;;12.10;56.90;;;;;;5102434;28;19954;-70
2021/12/23 03:56:46;;;;;;;;;;;12.10;56.90;;;;;;5102481;28;19911;-69
2021/12/23 03:59:13;;;;;;;;;;;12.10;56.90;;;;;;5102295;28;19978;-69
2021/12/23 04:01:38;;;;;;;;;;;12.10;56.70;;;;;;5102344;28;19908;-69
2021/12/23 04:04:04;;;;;;;;;;;12.10;56.70;;;;;;5102037;28;19915;-69
2021/12/23 04:06:30;;;;;;;;;;;12.10;56.70;;;;;;5102247;28;19908;-70
2021/12/23 04:08:55;;;;;;;;;;;12.10;56.70;;;;;;5102202;28;19915;-69
2021/12/23 04:11:21;;;;;;;;;;;12.10;56.70;;;;;;5102121;28;19908;-70
2021/12/23 04:13:47;;;;;;;;;;;12.10;56.80;;;;;;5102115;28;19914;-70
2021/12/23 04:16:13;;;;;;;;;;;12.10;57.30;;;;;;5102021;28;19932;-69
2021/12/23 04:18:38;;;;;;;;;;;12.10;56.70;;;;;;5101946;28;19908;-69
2021/12/23 04:21:04;;;;;;;;;;;12.10;56.70;;;;;;5101912;28;19908;-69
2021/12/23 04:23:31;;;;;;;;;;;12.10;56.80;;;;;;5101819;28;20104;-69
2021/12/23 04:25:57;;;;;;;;;;;12.10;56.80;;;;;;5101180;28;20005;-70
2021/12/23 04:28:23;;;;;;;;;;;12.10;56.80;;;;;;5083579;28;19900;-70
2021/12/23 04:30:49;;;;;;;;;;;12.10;56.80;;;;;;5101756;28;20231;-69
2021/12/23 04:33:15;;;;;;;;;;;12.10;56.80;;;;;;5083594;28;20018;-70
2021/12/23 04:35:41;;;;;;;;;;;12.00;56.90;;;;;;5101606;28;19916;-70
2021/12/23 04:38:07;;;;;;;;;;;12.00;57.00;;;;;;5101569;28;19978;-69
2021/12/23 04:40:37;;;;;;;;;;;12.00;57.00;;;;;;5101539;28;20073;-70
2021/12/23 04:43:03;;;;;;;;;;;12.10;56.90;;;;;;5101465;28;19983;-71
2021/12/23 04:45:29;;;;;;;;;;;12.10;56.80;;;;;;5101361;28;20236;-70
2021/12/23 04:47:54;;;;;;;;;;;12.10;56.80;;;;;;5101394;28;19940;-70
2021/12/23 04:50:20;;;;;;;;;;;12.10;56.90;;;;;;5101326;28;20028;-70
2021/12/23 04:52:46;;;;;;;;;;;12.00;56.90;;;;;;5101344;28;20159;-69
2021/12/23 04:55:12;;;;;;;;;;;12.10;56.80;;;;;;5101271;28;19954;-69
2021/12/23 04:57:38;;;;;;;;;;;12.00;56.80;;;;;;5101207;28;19900;-70
2021/12/23 05:00:05;;;;;;;;;;;12.00;56.80;;;;;;5101442;28;19931;-70
2021/12/23 05:02:31;;;;;;;;;;;12.00;56.80;;;;;;5100995;28;19908;-70
2021/12/23 05:04:56;;;;;;;;;;;12.10;56.80;;;;;;5100944;28;19943;-70
2021/12/23 05:07:22;;;;;;;;;;;12.00;56.70;;;;;;5101020;28;19911;-70
2021/12/23 05:09:47;;;;;;;;;;;12.10;56.80;;;;;;5100988;28;20001;-70
2021/12/23 05:12:13;;;;;;;;;;;12.10;56.70;;;;;;5082695;28;19914;-70
2021/12/23 05:14:39;;;;;;;;;;;12.00;56.60;;;;;;5082655;28;19915;-70
2021/12/23 05:17:04;;;;;;;;;;;12.00;56.80;;;;;;5100817;28;19912;-71
2021/12/23 05:19:30;;;;;;;;;;;12.00;56.90;;;;;;5100802;28;19907;-70
2021/12/23 05:21:55;;;;;;;;;;;11.90;57.00;;;;;;5100792;28;20391;-70
2021/12/23 05:24:21;;;;;;;;;;;11.90;57.00;;;;;;5100690;28;19980;-70
2021/12/23 05:26:47;;;;;;;;;;;12.00;56.90;;;;;;5100728;28;19953;-70
2021/12/23 05:29:14;;;;;;;;;;;12.00;56.80;;;;;;5100611;28;20100;-69
2021/12/23 05:31:40;;;;;;;;;;;12.00;56.70;;;;;;5100590;28;20190;-71
2021/12/23 05:34:05;;;;;;;;;;;12.00;56.70;;;;;;5100565;28;19908;-70
2021/12/23 05:36:31;;;;;;;;;;;12.00;56.80;;;;;;5100147;28;19908;-70
2021/12/23 05:38:57;;;;;;;;;;;12.00;56.90;;;;;;5100056;28;19911;-70
2021/12/23 05:41:26;;;;;;;;;;;12.00;56.80;;;;;;5100462;28;19931;-70
2021/12/23 05:43:56;;;;;;;;;;;12.00;56.80;;;;;;5100411;28;19966;-70
2021/12/23 05:46:22;;;;;;;;;;;12.00;56.80;;;;;;5100295;28;19926;-69
2021/12/23 05:48:47;;;;;;;;;;;12.00;56.80;;;;;;5100280;28;19908;-70
2021/12/23 05:51:13;;;;;;;;;;;12.00;56.80;;;;;;5100240;28;19900;-70
2021/12/23 05:53:38;;;;;;;;;;;11.90;56.80;;;;;;5100266;28;19915;-70
2021/12/23 05:56:05;;;;;;;;;;;12.00;56.80;;;;;;5100478;28;20184;-70
2021/12/23 05:58:30;;;;;;;;;;;11.90;56.80;;;;;;5100115;28;20338;-68
2021/12/23 06:00:56;;;;;;;;;;;11.90;56.90;;;;;;5100156;28;19908;-69
2021/12/23 06:03:24;;;;;;;;;;;11.90;57.00;;;;;;5100042;28;19908;-70
2021/12/23 06:05:50;;;;;;;;;;;11.90;57.10;;;;;;5099658;28;19927;-69
2021/12/23 06:08:16;;;;;;;;;;;11.90;57.00;;;;;;5081906;28;20319;-69
2021/12/23 06:10:42;;;;;;;;;;;11.90;56.80;;;;;;5099943;28;19915;-70
2021/12/23 06:13:07;;;;;;;;;;;12.00;56.70;;;;;;5099883;28;19904;-69
2021/12/23 06:15:33;;;;;;;;;;;12.00;56.60;;;;;;5081878;28;20110;-70
2021/12/23 06:17:59;;;;;;;;;;;12.00;56.60;;;;;;5099946;28;19971;-70
2021/12/23 06:20:24;;;;;;;;;;;12.00;56.60;;;;;;5099940;28;19915;-69
2021/12/23 06:22:53;;;;;;;;;;;12.00;56.70;;;;;;5099860;28;19935;-70
2021/12/23 06:25:19;;;;;;;;;;;12.00;56.80;;;;;;5081659;28;19912;-70
2021/12/23 06:27:44;;;;;;;;;;;11.90;56.90;;;;;;5081744;28;19953;-71
2021/12/23 06:30:14;;;;;;;;;;;11.90;56.80;;;;;;5099796;28;20272;-70
2021/12/23 06:32:39;;;;;;;;;;;11.90;56.80;;;;;;5099735;28;19915;-69
2021/12/23 06:35:05;;;;;;;;;;;11.90;56.90;;;;;;5099787;28;19908;-70
2021/12/23 06:37:31;;;;;;;;;;;11.90;56.90;;;;;;5099667;28;19916;-70
2021/12/23 06:39:56;;;;;;;;;;;11.90;57.00;;;;;;5099766;28;19912;-70
2021/12/23 06:42:23;;;;;;;;;;;11.80;57.00;;;;;;5099712;28;19998;-71
2021/12/23 06:44:48;;;;;;;;;;;11.80;57.00;;;;;;5099594;28;19919;-70
2021/12/23 06:47:14;;;;;;;;;;;11.80;57.00;;;;;;5081512;28;19908;-70
2021/12/23 06:49:39;;;;;;;;;;;11.80;56.90;;;;;;5102430;28;19907;-70
2021/12/23 06:52:05;;;;;;;;;;;11.90;56.80;;;;;;5103678;28;19939;-70
2021/12/23 06:54:31;;;;;;;;;;;11.90;56.70;;;;;;5103588;28;19908;-70
2021/12/23 06:56:56;;;;;;;;;;;11.90;56.80;;;;;;5103590;28;19915;-70
2021/12/23 06:59:22;;;;;;;;;;;11.90;56.80;;;;;;5103483;28;19900;-70
2021/12/23 07:01:49;;;;;;;;;;;11.90;56.80;;;;;;5103477;28;19900;-68
2021/12/23 07:04:17;;;;;;;;;;;11.90;56.90;;;;;;5103321;28;19916;-70
2021/12/23 07:07:28;;;;;;;;;;;11.90;56.80;;;;;;5103360;28;20155;-69
2021/12/23 07:09:32;;;;;;;;;;;11.90;56.70;;;;;;5097480;28;19907;-71
2021/12/23 07:11:57;;;;;;;;;;;11.90;56.60;;;;;;5103270;28;19900;-69
2021/12/23 07:14:23;;;;;;;;;;;11.90;56.60;;;;;;5103289;28;19915;-69
2021/12/23 07:16:48;;;;;;;;;;;11.90;56.60;;;;;;5103180;28;19950;-68
2021/12/23 07:19:14;;;;;;;;;;;11.90;56.70;;;;;;5103198;28;19979;-69
2021/12/23 07:21:39;;;;;;;;;;;11.90;56.80;;;;;;5103026;28;19908;-69
2021/12/23 07:24:05;;;;;;;;;;;11.80;56.80;;;;;;5084838;28;19914;-69
2021/12/23 07:26:32;;;;;;;;;;;11.80;56.80;;;;;;5102917;28;19918;-70
2021/12/23 07:28:58;;;;;;;;;;;11.80;56.90;;;;;;5103000;28;19900;-69
2021/12/23 07:31:23;;;;;;;;;;;11.80;56.90;;;;;;5102837;28;19912;-69
2021/12/23 07:33:49;;;;;;;;;;;11.90;56.70;;;;;;5102899;28;19908;-70
2021/12/23 07:36:16;;;;;;;;;;;11.90;56.70;;;;;;5102811;28;19915;-69
2021/12/23 07:38:42;;;;;;;;;;;11.90;56.60;;;;;;5102769;28;19908;-70
2021/12/23 07:41:08;;;;;;;;;;;11.90;56.60;;;;;;5102755;28;20414;-71
2021/12/23 07:46:00;;;;;;;;;;;11.90;56.70;;;;;;5102828;28;20002;-70
2021/12/23 07:48:26;;;;;;;;;;;11.90;56.60;;;;;;5102628;28;19938;-70
2021/12/23 07:50:53;;;;;;;;;;;11.90;56.70;;;;;;5102489;28;20119;-70
2021/12/23 07:53:18;;;;;;;;;;;11.90;56.60;;;;;;5102457;28;19908;-70
2021/12/23 07:55:44;;;;;;;;;;;11.90;56.50;;;;;;5102466;28;20276;-70
2021/12/23 07:58:10;;;;;;;;;;;11.90;56.40;;;;;;5102419;28;19908;-70
2021/12/23 08:00:35;;;;;;;;;;;11.90;56.50;;;;;;5101264;28;19916;-70
2021/12/23 08:03:02;;;;;;;;;;;11.90;56.60;;;;;;5102324;28;19952;-69
2021/12/23 08:05:28;;;;;;;;;;;11.80;56.60;;;;;;5102101;28;20208;-70
2021/12/23 08:07:55;;;;;;;;;;;11.80;56.70;;;;;;5102438;28;19930;-70
2021/12/23 08:10:20;;;;;;;;;;;11.80;56.70;;;;;;5083913;28;19912;-69
2021/12/23 08:12:46;;;;;;;;;;;11.80;56.80;;;;;;5102163;28;19915;-69
2021/12/23 08:15:12;;;;;;;;;;;11.80;56.70;;;;;;5102092;28;20246;-70
2021/12/23 08:17:38;;;;;;;;;;;11.90;56.50;;;;;;5102026;28;20188;-71
2021/12/23 08:20:04;;;;;;;;;;;11.90;56.40;;;;;;5101950;28;19908;-70
2021/12/23 08:22:30;;;;;;;;;;;11.90;56.30;;;;;;5101982;28;20237;-70
2021/12/23 08:24:55;;;;;;;;;;;11.90;56.40;;;;;;5101848;28;19911;-70
2021/12/23 08:27:25;;;;;;;;;;;11.90;56.50;;;;;;5101853;28;19908;-70
2021/12/23 08:29:50;;;;;;;;;;;11.90;56.50;;;;;;5083592;28;19941;-71
2021/12/23 08:32:16;;;;;;;;;;;11.90;56.50;;;;;;5101753;28;19935;-70
2021/12/23 08:34:41;;;;;;;;;;;11.90;56.50;;;;;;5101640;28;19969;-69
2021/12/23 08:37:11;;;;;;;;;;;11.90;56.50;;;;;;5101607;28;19915;-71
2021/12/23 08:39:37;;;;;;;;;;;11.90;56.40;;;;;;5101622;28;19944;-70
2021/12/23 08:42:03;;;;;;;;;;;11.90;56.50;;;;;;5101527;28;19907;-70
2021/12/23 08:44:28;;;;;;;;;;;11.90;56.50;;;;;;5083308;28;19979;-68
2021/12/23 08:46:54;;;;;;;;;;;11.90;56.50;;;;;;5083295;28;19908;-69
2021/12/23 08:49:20;;;;;;;;;;;11.90;56.50;;;;;;5101454;28;19965;-70
2021/12/23 08:51:45;;;;;;;;;;;11.90;56.40;;;;;;5101457;28;20178;-69
2021/12/23 08:54:11;;;;;;;;;;;11.90;56.40;;;;;;5101285;28;19908;-70
2021/12/23 08:56:37;;;;;;;;;;;11.90;56.50;;;;;;5101307;28;19908;-69
2021/12/23 08:59:02;;;;;;;;;;;12.00;56.40;;;;;;5101210;28;19908;-70
2021/12/23 09:01:28;;;;;;;;;;;12.00;56.20;;;;;;5101179;28;19908;-69
2021/12/23 09:03:53;;;;;;;;;;;12.00;56.20;;;;;;5101199;28;19908;-70
2021/12/23 09:06:19;;;;;;;;;;;12.00;56.20;;;;;;5100847;28;19945;-69
2021/12/23 09:08:45;;;;;;;;;;;12.00;56.20;;;;;;5101109;28;19988;-70
2021/12/23 09:11:10;;;;;;;;;;;12.00;56.20;;;;;;5100868;28;19908;-70
2021/12/23 09:13:36;;;;;;;;;;;12.00;56.20;;;;;;5101006;28;19912;-71
2021/12/23 09:16:02;;;;;;;;;;;12.00;56.20;;;;;;5100923;28;19908;-70
2021/12/23 09:18:27;;;;;;;;;;;12.00;56.10;;;;;;5100873;28;20199;-69
2021/12/23 09:20:54;;;;;;;;;;;12.00;56.20;;;;;;5100744;28;20107;-69
2021/12/23 09:23:24;;;;;;;;;;;12.10;56.10;;;;;;5100822;28;20394;-69
2021/12/23 09:25:51;;;;;;;;;;;12.10;56.10;;;;;;5100602;28;19911;-71
2021/12/23 09:33:42;;;;;;;;;;;12.10;56.00;;;;;;5100621;28;19914;-69
2021/12/23 09:36:07;;;;;;;;;;;12.10;56.00;;;;;;5100531;28;19908;-70
2021/12/23 09:38:33;;;;;;;;;;;12.10;56.10;;;;;;5082244;28;19938;-69
2021/12/23 09:41:08;;;;;;;;;;;12.10;56.10;;;;;;5100435;28;19908;-70
2021/12/23 09:43:35;;;;;;;;;;;12.10;56.10;;;;;;5100435;28;20305;-70
2021/12/23 09:46:01;;;;;;;;;;;12.10;55.90;;;;;;5100273;28;19911;-70
2021/12/23 09:48:28;;;;;;;;;;;12.20;55.90;;;;;;5100438;28;20009;-70
2021/12/23 09:50:54;;;;;;;;;;;12.20;55.90;;;;;;5100269;28;19981;-71
2021/12/23 09:53:22;;;;;;;;;;;12.20;55.90;;;;;;5100267;28;19908;-70
2021/12/23 09:55:48;;;;;;;;;;;12.20;55.90;;;;;;5100205;28;19931;-70
2021/12/23 09:58:13;;;;;;;;;;;12.20;55.90;;;;;;5100194;28;19930;-69
2021/12/23 10:00:45;;;;;;;;;;;12.20;55.90;;;;;;5100117;28;19908;-71
2021/12/23 10:03:11;;;;;;;;;;;12.20;55.90;;;;;;5100099;28;19937;-70
2021/12/23 10:05:37;;;;;;;;;;;12.20;55.80;;;;;;5099882;28;19976;-69
2021/12/23 10:08:05;;;;;;;;;;;12.20;55.70;;;;;;5100144;28;20188;-70
2021/12/23 10:10:45;;;;;;;;;;;12.20;55.70;;;;;;5100019;28;19908;-69
2021/12/23 10:27:38;;;;;;;;;;;12.30;55.60;;;;;;5099951;28;19911;-70
2021/12/23 10:38:13;;;;;;;;;;;12.30;55.50;;;;;;5099849;28;19930;-70
2021/12/23 10:40:40;;;;;;;;;;;12.30;55.60;;;;;;5099764;28;20259;-70
2021/12/23 10:43:08;;;;;;;;;;;12.30;55.50;;;;;;5099742;28;19935;-69
2021/12/23 10:45:48;;;;;;;;;;;12.30;55.60;;;;;;5099590;28;19919;-70
2021/12/23 10:48:16;;;;;;;;;;;12.30;55.70;;;;;;5099658;28;19908;-68
2021/12/23 10:50:48;;;;;;;;;;;12.30;55.50;;;;;;5099668;28;19912;-69
2021/12/23 10:53:30;;;;;;;;;;;12.30;56.00;;;;;;5099602;28;19946;-69
2021/12/23 10:59:04;;;;;;;;;;;12.30;55.50;;;;;;5099610;28;20213;-70
2021/12/23 11:01:30;;;;;;;;;;;12.30;55.50;;;;;;5099626;28;19936;-69
2021/12/23 11:03:59;;;;;;;;;;;12.30;55.50;;;;;;5081241;28;19946;-68
2021/12/23 11:06:32;;;;;;;;;;;12.30;55.60;;;;;;5099425;28;19987;-69
2021/12/23 11:09:20;;;;;;;;;;;12.30;55.60;;;;;;5081368;28;19912;-70
2021/12/23 11:39:26;;;;;;;;;;;12.30;55.60;;;;;;5102895;28;19907;-69
2021/12/23 11:42:14;;;;;;;;;;;12.30;55.60;;;;;;5102757;28;19908;-70
2021/12/23 11:44:40;;;;;;;;;;;12.30;55.60;;;;;;5102676;28;19953;-69
2021/12/23 11:47:11;;;;;;;;;;;12.30;55.50;;;;;;5102749;28;19908;-70
2021/12/23 11:49:39;;;;;;;;;;;12.30;55.60;;;;;;5102680;28;19915;-69
2021/12/23 11:52:05;;;;;;;;;;;12.30;55.70;;;;;;5102630;28;19908;-69
2021/12/23 11:54:33;;;;;;;;;;;12.30;55.70;;;;;;5102539;28;20212;-70
2021/12/23 11:57:03;;;;;;;;;;;12.20;55.60;;;;;;5102534;28;20116;-69
2021/12/23 11:59:29;;;;;;;;;;;12.30;55.60;;;;;;5084317;28;19908;-69
2021/12/23 12:01:55;;;;;;;;;;;12.30;55.50;;;;;;5084256;28;19908;-69
2021/12/23 12:04:29;;;;;;;;;;;12.30;55.50;;;;;;5102089;28;20327;-70
2021/12/23 12:06:55;;;;;;;;;;;12.30;55.60;;;;;;5102330;28;19979;-69
2021/12/23 12:09:43;;;;;;;;;;;12.30;55.60;;;;;;5102298;28;20120;-69
2021/12/23 12:12:11;;;;;;;;;;;12.30;56.30;;;;;;5100774;28;20207;-69
2021/12/23 12:14:38;;;;;;;;;;;12.20;55.70;;;;;;5102255;28;19943;-69
2021/12/23 12:17:22;;;;;;;;;;;12.20;55.80;;;;;;5102150;28;20174;-70
2021/12/23 12:19:55;;;;;;;;;;;12.20;55.80;;;;;;5102100;28;19900;-70
2021/12/23 12:22:39;;;;;;;;;;;12.20;55.80;;;;;;5102144;28;20188;-69
2021/12/23 12:25:04;;;;;;;;;;;12.20;55.80;;;;;;5101967;28;19915;-69
2021/12/23 12:27:30;;;;;;;;;;;12.20;55.80;;;;;;5101977;28;19907;-69
2021/12/23 12:30:06;;;;;;;;;;;12.20;55.90;;;;;;5101961;28;20251;-70
2021/12/23 12:32:36;;;;;;;;;;;12.10;55.90;;;;;;5101885;28;19978;-70
2021/12/23 12:35:10;;;;;;;;;;;12.10;56.00;;;;;;5101749;28;19908;-70
2021/12/23 12:37:44;;;;;;;;;;;12.10;56.00;;;;;;5101465;28;19908;-70
2021/12/23 12:40:10;;;;;;;;;;;12.10;56.00;;;;;;5101768;28;19931;-69
2021/12/23 12:42:41;;;;;;;;;;;12.10;55.80;;;;;;5101670;28;19942;-70
2021/12/23 12:45:15;;;;;;;;;;;12.10;55.70;;;;;;5101620;28;19912;-70
2021/12/23 12:47:49;;;;;;;;;;;12.20;55.70;;;;;;5101136;28;19970;-70
2021/12/23 12:50:20;;;;;;;;;;;12.10;55.70;;;;;;5101631;28;19908;-69
2021/12/23 12:52:48;;;;;;;;;;;12.20;55.60;;;;;;5101548;28;19934;-69
2021/12/23 12:55:22;;;;;;;;;;;12.10;55.60;;;;;;5101435;28;19908;-69
2021/12/23 12:57:50;;;;;;;;;;;12.10;55.70;;;;;;5101441;28;20187;-69
2021/12/23 13:00:17;;;;;;;;;;;12.10;55.80;;;;;;5101388;28;19908;-69
2021/12/23 13:02:48;;;;;;;;;;;12.10;55.70;;;;;;5101357;28;19900;-70
2021/12/23 13:05:13;;;;;;;;;;;12.10;55.70;;;;;;5101106;28;20037;-69
2021/12/23 13:07:41;;;;;;;;;;;12.10;55.70;;;;;;5101266;28;19916;-70
2021/12/23 13:10:12;;;;;;;;;;;12.10;55.70;;;;;;5101223;28;19939;-70
2021/12/23 13:12:50;;;;;;;;;;;12.10;55.70;;;;;;5101202;28;19923;-70
2021/12/23 13:15:16;;;;;;;;;;;12.10;56.40;;;;;;5101120;28;19982;-69
2021/12/23 13:17:43;;;;;;;;;;;12.10;55.90;;;;;;5101041;28;20036;-68
2021/12/23 13:20:09;;;;;;;;;;;12.10;55.90;;;;;;5101039;28;19908;-69
2021/12/23 13:22:34;;;;;;;;;;;12.10;55.90;;;;;;5100993;28;20247;-69
2021/12/23 13:25:02;;;;;;;;;;;12.10;55.70;;;;;;5100833;28;19966;-70
2021/12/23 13:27:28;;;;;;;;;;;12.10;55.60;;;;;;5100860;28;19993;-69
2021/12/23 13:30:00;;;;;;;;;;;12.10;55.70;;;;;;5100846;28;19926;-69
2021/12/23 13:32:25;;;;;;;;;;;12.10;55.70;;;;;;5100937;28;19937;-69
2021/12/23 13:34:51;;;;;;;;;;;12.10;55.70;;;;;;5100723;28;19908;-69
2021/12/23 13:37:17;;;;;;;;;;;12.10;55.80;;;;;;5100775;28;19908;-69
2021/12/23 13:39:42;;;;;;;;;;;12.10;55.80;;;;;;5100633;28;19907;-70
2021/12/23 13:42:10;;;;;;;;;;;12.00;55.70;;;;;;5100664;28;19974;-69
2021/12/23 13:44:36;;;;;;;;;;;12.00;55.80;;;;;;5100572;28;20364;-70
2021/12/23 13:47:09;;;;;;;;;;;12.00;55.70;;;;;;5082410;28;19908;-69
2021/12/23 13:49:35;;;;;;;;;;;12.00;55.70;;;;;;5100615;28;19915;-70
2021/12/23 13:52:01;;;;;;;;;;;12.00;55.80;;;;;;5082352;28;19900;-70
2021/12/23 13:54:31;;;;;;;;;;;12.00;55.80;;;;;;5100430;28;19929;-71
2021/12/23 13:56:57;;;;;;;;;;;12.00;55.80;;;;;;5100563;28;19915;-70
2021/12/23 13:59:25;;;;;;;;;;;12.00;55.90;;;;;;5099587;28;19900;-69
2021/12/23 14:01:53;;;;;;;;;;;12.00;55.80;;;;;;5100218;28;19971;-69
2021/12/23 14:04:39;;;;;;;;;;;12.00;55.70;;;;;;5100168;28;19974;-69
2021/12/23 14:07:13;;;;;;;;;;;12.00;55.70;;;;;;5100337;28;19971;-69
2021/12/23 14:09:52;;;;;;;;;;;12.10;55.70;;;;;;5100282;28;19908;-70
2021/12/23 14:12:23;;;;;;;;;;;12.10;55.50;;;;;;5100233;28;20142;-70
2021/12/23 14:14:50;;;;;;;;;;;12.10;55.60;;;;;;5100451;28;19908;-70
2021/12/23 14:17:23;;;;;;;;;;;12.00;55.70;;;;;;5100145;28;20206;-70
2021/12/23 14:25:33;;;;;;;;;;;12.00;55.90;;;;;;5100100;28;19942;-69
2021/12/23 14:27:59;;;;;;;;;;;12.00;55.90;;;;;;5100022;28;19911;-70
2021/12/23 14:30:35;;;;;;;;;;;12.00;55.90;;;;;;5100017;28;19916;-70
2021/12/23 14:33:10;;;;;;;;;;;12.00;55.80;;;;;;5099931;28;20092;-70
2021/12/23 14:35:35;;;;;;;;;;;12.00;55.90;;;;;;5100018;28;19900;-69
2021/12/23 14:38:02;;;;;;;;;;;11.90;55.90;;;;;;5099912;28;19908;-69
2021/12/23 14:40:28;;;;;;;;;;;12.00;55.90;;;;;;5099977;28;19908;-70
2021/12/23 14:43:01;;;;;;;;;;;11.90;56.00;;;;;;5081852;28;19915;-69
2021/12/23 14:45:27;;;;;;;;;;;12.00;55.90;;;;;;5100090;28;19916;-70
2021/12/23 14:48:10;;;;;;;;;;;11.90;55.90;;;;;;5099833;28;19914;-69
2021/12/23 14:50:48;;;;;;;;;;;12.00;55.90;;;;;;5081795;28;20340;-69
2021/12/23 14:53:20;;;;;;;;;;;11.90;55.90;;;;;;5081643;28;19979;-69
2021/12/23 14:55:57;;;;;;;;;;;11.90;55.80;;;;;;5099829;28;20274;-69
2021/12/23 14:58:23;;;;;;;;;;;11.90;55.80;;;;;;5099758;28;19908;-69
2021/12/23 15:00:49;;;;;;;;;;;11.90;55.90;;;;;;5099714;28;20245;-69
2021/12/23 15:03:18;;;;;;;;;;;11.90;56.00;;;;;;5099652;28;19914;-70
2021/12/23 15:05:45;;;;;;;;;;;11.90;56.00;;;;;;5099493;28;19924;-69
2021/12/23 15:08:18;;;;;;;;;;;11.90;55.90;;;;;;5099620;28;20149;-70
2021/12/23 15:10:45;;;;;;;;;;;11.90;55.90;;;;;;5084255;28;20199;-69
2021/12/23 15:13:13;;;;;;;;;;;11.90;55.90;;;;;;5103512;28;19908;-69
2021/12/23 15:15:38;;;;;;;;;;;11.80;55.90;;;;;;5103451;28;19908;-69
2021/12/23 15:18:15;;;;;;;;;;;11.80;56.00;;;;;;5103415;28;19915;-69
2021/12/23 15:20:48;;;;;;;;;;;11.90;56.00;;;;;;5103316;28;20195;-70
2021/12/23 15:23:13;;;;;;;;;;;11.80;56.00;;;;;;5103280;28;19915;-69
2021/12/23 15:25:40;;;;;;;;;;;11.80;56.00;;;;;;5103210;28;19934;-69
2021/12/23 15:28:07;;;;;;;;;;;11.80;55.90;;;;;;5103198;28;19900;-70
2021/12/23 15:30:33;;;;;;;;;;;11.80;55.90;;;;;;5103148;28;19930;-70
2021/12/23 15:32:59;;;;;;;;;;;11.90;55.90;;;;;;5103120;28;19912;-70